Time;durP1;ratioP1;P1;durP2;ratioP2;P2;SDS_P1;SDS_P2;PMS_P1;PMS_P2;Temp;Humidity;BMP_temperature;BMP_pressure;BME280_temperature;BME280_humidity;BME280_pressure;Samples;Min_cycle;Max_cycle;Signal;HPM_P1;HPM_P2
2023/07/24 00:01:45;;;;;;;;;;;19.10;99.90;;;;;;7325943;19;9135;-82
2023/07/24 00:04:14;;;;;;;;;;;19.00;99.90;;;;;;7326194;19;11403;-82
2023/07/24 00:06:45;;;;;;;;;;;19.00;99.90;;;;;;7324645;19;9499;-82
2023/07/24 00:09:14;;;;;;;;;;;18.90;99.90;;;;;;7324134;19;9735;-81
2023/07/24 00:11:43;;;;;;;;;;;18.90;99.90;;;;;;7325418;19;9314;-82
2023/07/24 00:14:12;;;;;;;;;;;18.90;99.90;;;;;;7325438;19;9252;-82
2023/07/24 00:16:41;;;;;;;;;;;18.90;99.90;;;;;;7325528;19;9264;-82
2023/07/24 00:19:10;;;;;;;;;;;18.90;99.90;;;;;;7324647;19;11203;-82
2023/07/24 00:21:40;;;;;;;;;;;18.90;99.90;;;;;;7325488;19;9291;-80
2023/07/24 00:24:12;;;;;;;;;;;18.90;99.90;;;;;;7325255;19;9683;-82
2023/07/24 00:26:40;;;;;;;;;;;18.90;99.90;;;;;;7322740;19;9438;-81
2023/07/24 00:29:09;;;;;;;;;;;18.90;99.90;;;;;;7325242;19;9190;-81
2023/07/24 00:31:38;;;;;;;;;;;18.90;99.90;;;;;;7325023;19;9241;-81
2023/07/24 00:34:07;;;;;;;;;;;18.90;99.90;;;;;;7324528;19;9268;-82
2023/07/24 00:36:36;;;;;;;;;;;18.90;99.90;;;;;;7323253;19;9284;-82
2023/07/24 00:39:05;;;;;;;;;;;19.00;99.90;;;;;;7322797;19;9188;-81
2023/07/24 00:41:36;;;;;;;;;;;19.00;99.90;;;;;;7322294;19;9494;-81
2023/07/24 00:44:06;;;;;;;;;;;18.90;99.90;;;;;;7325579;19;9480;-81
2023/07/24 00:46:36;;;;;;;;;;;18.90;99.90;;;;;;7321862;19;13079;-81
2023/07/24 00:49:07;;;;;;;;;;;18.90;99.90;;;;;;7325107;19;9492;-81
2023/07/24 00:51:37;;;;;;;;;;;18.90;99.90;;;;;;7323461;19;9209;-82
2023/07/24 00:54:09;;;;;;;;;;;18.90;99.90;;;;;;7325763;19;9473;-82
2023/07/24 00:56:42;;;;;;;;;;;18.80;99.90;;;;;;7320164;19;9462;-81
2023/07/24 00:59:11;;;;;;;;;;;18.80;99.90;;;;;;7322043;19;9464;-81
2023/07/24 01:01:42;;;;;;;;;;;18.70;99.90;;;;;;7321941;19;9582;-82
2023/07/24 01:04:12;;;;;;;;;;;18.50;99.90;;;;;;7325178;19;9237;-82
2023/07/24 01:06:41;;;;;;;;;;;18.50;99.90;;;;;;7324168;19;9220;-82
2023/07/24 01:09:10;;;;;;;;;;;18.40;99.90;;;;;;7323119;19;9515;-81
2023/07/24 01:11:47;;;;;;;;;;;18.50;99.90;;;;;;7322382;19;9241;-81
2023/07/24 01:14:24;;;;;;;;;;;18.50;99.90;;;;;;7324587;19;9486;-81
2023/07/24 01:16:58;;;;;;;;;;;18.40;99.90;;;;;;7322653;19;10009;-81
2023/07/24 01:19:39;;;;;;;;;;;18.40;99.90;;;;;;7324246;19;10227;-81
2023/07/24 01:22:23;;;;;;;;;;;18.30;99.90;;;;;;7323811;19;9256;-81
2023/07/24 01:25:06;;;;;;;;;;;18.30;99.90;;;;;;7320896;19;9712;-81
2023/07/24 01:27:38;;;;;;;;;;;18.20;99.90;;;;;;7321963;19;9422;-81
2023/07/24 01:30:08;;;;;;;;;;;18.10;99.90;;;;;;7321228;19;10455;-82
2023/07/24 01:32:37;;;;;;;;;;;18.00;99.90;;;;;;7320232;19;9210;-81
2023/07/24 01:35:08;;;;;;;;;;;17.80;99.90;;;;;;7322812;19;10329;-81
2023/07/24 01:37:40;;;;;;;;;;;17.70;99.90;;;;;;7322861;19;9575;-81
2023/07/24 01:40:10;;;;;;;;;;;17.60;99.90;;;;;;7318365;19;10374;-81
2023/07/24 01:42:42;;;;;;;;;;;17.50;99.90;;;;;;7322925;19;9406;-81
2023/07/24 01:45:12;;;;;;;;;;;17.50;99.90;;;;;;7319355;19;8944;-82
2023/07/24 01:47:41;;;;;;;;;;;17.50;99.90;;;;;;7320641;19;9265;-82
2023/07/24 01:50:11;;;;;;;;;;;17.50;99.90;;;;;;7318376;19;9518;-81
2023/07/24 01:52:39;;;;;;;;;;;17.50;99.90;;;;;;7323400;19;8997;-81
2023/07/24 01:55:09;;;;;;;;;;;17.50;99.90;;;;;;7320836;19;9402;-81
2023/07/24 01:57:41;;;;;;;;;;;17.50;99.90;;;;;;7321172;19;9210;-81
2023/07/24 02:00:11;;;;;;;;;;;17.50;99.90;;;;;;7321265;19;9472;-81
2023/07/24 02:02:40;;;;;;;;;;;17.70;99.90;;;;;;7322690;19;9402;-81
2023/07/24 02:05:09;;;;;;;;;;;17.70;99.90;;;;;;7322658;19;9302;-82
2023/07/24 02:07:38;;;;;;;;;;;17.70;99.90;;;;;;7318174;19;9541;-82
2023/07/24 02:10:09;;;;;;;;;;;17.60;99.90;;;;;;7320776;19;9464;-81
2023/07/24 02:12:37;;;;;;;;;;;17.70;99.90;;;;;;7322359;19;9547;-81
2023/07/24 02:15:10;;;;;;;;;;;17.70;99.90;;;;;;7320806;19;9713;-81
2023/07/24 02:17:39;;;;;;;;;;;17.60;99.90;;;;;;7321474;19;9480;-81
2023/07/24 02:20:09;;;;;;;;;;;17.70;99.90;;;;;;7320914;19;9267;-81
2023/07/24 02:22:39;;;;;;;;;;;17.60;99.90;;;;;;7320165;19;9388;-81
2023/07/24 02:25:09;;;;;;;;;;;17.60;99.90;;;;;;7321207;19;9172;-82
2023/07/24 02:27:38;;;;;;;;;;;17.60;99.90;;;;;;7317627;19;9538;-82
2023/07/24 02:30:10;;;;;;;;;;;17.60;99.90;;;;;;7321258;19;9367;-81
2023/07/24 02:32:39;;;;;;;;;;;17.50;99.90;;;;;;7321230;19;9432;-82
2023/07/24 02:35:10;;;;;;;;;;;17.50;99.90;;;;;;7321844;19;10743;-81
2023/07/24 02:37:39;;;;;;;;;;;17.50;99.90;;;;;;7318885;19;9234;-81
2023/07/24 02:40:10;;;;;;;;;;;17.50;99.90;;;;;;7316804;19;9232;-81
2023/07/24 02:42:38;;;;;;;;;;;17.50;99.90;;;;;;7322669;19;9347;-81
2023/07/24 02:45:12;;;;;;;;;;;17.50;99.90;;;;;;7320624;19;9520;-82
2023/07/24 02:47:42;;;;;;;;;;;17.50;99.90;;;;;;7316890;19;9239;-81
2023/07/24 02:50:11;;;;;;;;;;;17.60;99.90;;;;;;7320464;19;9560;-81
2023/07/24 02:52:40;;;;;;;;;;;17.70;99.90;;;;;;7318764;19;10699;-81
2023/07/24 02:55:10;;;;;;;;;;;17.70;99.90;;;;;;7319807;19;9554;-81
2023/07/24 02:57:39;;;;;;;;;;;17.60;99.90;;;;;;7320737;19;9287;-82
2023/07/24 03:00:12;;;;;;;;;;;17.70;99.90;;;;;;7318087;19;11991;-82
2023/07/24 03:02:41;;;;;;;;;;;17.60;99.90;;;;;;7319695;19;9300;-81
2023/07/24 03:05:11;;;;;;;;;;;17.70;99.90;;;;;;7319907;19;9243;-81
2023/07/24 03:07:39;;;;;;;;;;;17.70;99.90;;;;;;7318395;19;9158;-81
2023/07/24 03:10:10;;;;;;;;;;;17.70;99.90;;;;;;7318175;19;9562;-81
2023/07/24 03:12:39;;;;;;;;;;;17.70;99.90;;;;;;7319181;19;9469;-82
2023/07/24 03:15:12;;;;;;;;;;;17.60;99.90;;;;;;7318873;19;9424;-81
2023/07/24 03:17:41;;;;;;;;;;;17.60;99.90;;;;;;7319219;19;9442;-81
2023/07/24 03:20:16;;;;;;;;;;;17.50;99.90;;;;;;7317897;19;11309;-81
2023/07/24 03:22:46;;;;;;;;;;;17.50;99.90;;;;;;7320198;19;9399;-81
2023/07/24 03:25:16;;;;;;;;;;;17.50;99.90;;;;;;7319276;19;9262;-81
2023/07/24 03:27:45;;;;;;;;;;;17.50;99.90;;;;;;7318686;19;10844;-81
2023/07/24 03:30:16;;;;;;;;;;;17.50;99.90;;;;;;7317886;19;9245;-81
2023/07/24 03:32:45;;;;;;;;;;;17.40;99.90;;;;;;7321319;19;9258;-81
2023/07/24 03:35:14;;;;;;;;;;;17.40;99.90;;;;;;7315374;19;9329;-81
2023/07/24 03:37:43;;;;;;;;;;;17.30;99.90;;;;;;7316855;19;9204;-80
2023/07/24 03:40:13;;;;;;;;;;;17.30;99.90;;;;;;7318882;19;9269;-82
2023/07/24 03:42:42;;;;;;;;;;;17.30;99.90;;;;;;7320131;19;9370;-82
2023/07/24 03:45:12;;;;;;;;;;;17.20;99.90;;;;;;7320009;19;9221;-82
2023/07/24 03:47:43;;;;;;;;;;;17.10;99.90;;;;;;7316318;19;9221;-82
2023/07/24 03:50:12;;;;;;;;;;;17.10;99.90;;;;;;7316053;19;9250;-82
2023/07/24 03:52:41;;;;;;;;;;;17.10;99.90;;;;;;7315885;19;9281;-82
2023/07/24 03:55:11;;;;;;;;;;;17.00;99.90;;;;;;7318328;19;10138;-81
2023/07/24 03:57:40;;;;;;;;;;;17.00;99.90;;;;;;7316380;19;9463;-82
2023/07/24 04:00:10;;;;;;;;;;;17.00;99.90;;;;;;7319907;19;9446;-82
2023/07/24 04:02:42;;;;;;;;;;;17.00;99.90;;;;;;7313299;19;9296;-81
2023/07/24 04:05:13;;;;;;;;;;;17.00;99.90;;;;;;7304584;19;9514;-81
2023/07/24 04:07:42;;;;;;;;;;;17.00;99.90;;;;;;7309946;19;11143;-81
2023/07/24 04:10:12;;;;;;;;;;;17.00;99.90;;;;;;7315144;19;9181;-82
2023/07/24 04:12:41;;;;;;;;;;;17.00;99.90;;;;;;7312845;19;8944;-81
2023/07/24 04:15:11;;;;;;;;;;;17.00;99.90;;;;;;7322133;19;9483;-81
2023/07/24 04:17:41;;;;;;;;;;;17.00;99.90;;;;;;7314141;19;9425;-81
2023/07/24 04:20:13;;;;;;;;;;;16.90;99.90;;;;;;7315511;19;9489;-82
2023/07/24 04:22:42;;;;;;;;;;;16.90;99.90;;;;;;7317560;19;10943;-81
2023/07/24 04:25:12;;;;;;;;;;;16.90;99.90;;;;;;7319431;19;9481;-82
2023/07/24 04:27:41;;;;;;;;;;;16.90;99.90;;;;;;7312387;19;9283;-81
2023/07/24 04:30:11;;;;;;;;;;;17.00;99.90;;;;;;7299182;19;10220;-82
2023/07/24 04:32:40;;;;;;;;;;;16.90;99.90;;;;;;7292995;19;9288;-81
2023/07/24 04:35:12;;;;;;;;;;;16.90;99.90;;;;;;7309333;19;9449;-81
2023/07/24 04:37:41;;;;;;;;;;;16.90;99.90;;;;;;7322253;19;9583;-82
2023/07/24 04:40:11;;;;;;;;;;;16.90;99.90;;;;;;7320417;19;9378;-82
2023/07/24 04:42:40;;;;;;;;;;;16.90;99.90;;;;;;7313210;19;9484;-81
2023/07/24 04:45:11;;;;;;;;;;;16.90;99.90;;;;;;7320394;19;9251;-82
2023/07/24 04:47:40;;;;;;;;;;;16.90;99.90;;;;;;7319264;19;9215;-82
2023/07/24 04:50:09;;;;;;;;;;;17.00;99.90;;;;;;7316808;19;10492;-82
2023/07/24 04:52:41;;;;;;;;;;;16.90;99.90;;;;;;7313329;19;9474;-82
2023/07/24 04:55:10;;;;;;;;;;;17.00;99.90;;;;;;7320348;19;9131;-82
2023/07/24 04:57:39;;;;;;;;;;;17.00;99.90;;;;;;7294082;19;9183;-82
2023/07/24 05:00:09;;;;;;;;;;;17.00;99.90;;;;;;7317662;19;9666;-82
2023/07/24 05:02:38;;;;;;;;;;;17.00;99.90;;;;;;7323685;19;9208;-82
2023/07/24 05:05:08;;;;;;;;;;;17.00;99.90;;;;;;7323343;19;9518;-82
2023/07/24 05:07:37;;;;;;;;;;;17.10;99.90;;;;;;7320719;19;9449;-82
2023/07/24 05:10:10;;;;;;;;;;;17.10;99.90;;;;;;7320920;19;10593;-82
2023/07/24 05:12:39;;;;;;;;;;;17.20;99.90;;;;;;7323338;19;10377;-82
2023/07/24 05:15:09;;;;;;;;;;;17.10;99.90;;;;;;7322702;19;9471;-82
2023/07/24 05:17:38;;;;;;;;;;;17.10;99.90;;;;;;7321506;19;9240;-82
2023/07/24 05:20:09;;;;;;;;;;;17.10;99.90;;;;;;7323693;19;9505;-82
2023/07/24 05:22:38;;;;;;;;;;;17.10;99.90;;;;;;7322938;19;9083;-82
2023/07/24 05:25:11;;;;;;;;;;;17.10;99.90;;;;;;7321662;19;9349;-82
2023/07/24 05:27:40;;;;;;;;;;;17.10;99.90;;;;;;7322153;19;9289;-82
2023/07/24 05:30:10;;;;;;;;;;;17.10;99.90;;;;;;7322525;19;8944;-82
2023/07/24 05:32:39;;;;;;;;;;;17.20;99.90;;;;;;7321887;19;9193;-82
2023/07/24 05:35:08;;;;;;;;;;;17.20;99.90;;;;;;7316841;19;9296;-82
2023/07/24 05:37:37;;;;;;;;;;;17.20;99.90;;;;;;7311003;19;9327;-82
2023/07/24 05:40:10;;;;;;;;;;;17.30;99.90;;;;;;7316534;19;10686;-81
2023/07/24 05:42:42;;;;;;;;;;;17.30;99.90;;;;;;7304585;19;9173;-82
2023/07/24 05:45:12;;;;;;;;;;;17.50;99.90;;;;;;7313262;19;9244;-82
2023/07/24 05:47:41;;;;;;;;;;;17.60;99.90;;;;;;7321145;19;9249;-82
2023/07/24 05:50:13;;;;;;;;;;;17.60;99.90;;;;;;7311882;19;9335;-81
2023/07/24 05:52:42;;;;;;;;;;;17.60;99.90;;;;;;7320923;19;9330;-82
2023/07/24 05:55:14;;;;;;;;;;;17.80;99.90;;;;;;7321854;19;9338;-82
2023/07/24 05:57:43;;;;;;;;;;;17.90;99.90;;;;;;7319820;19;9240;-82
2023/07/24 06:00:13;;;;;;;;;;;18.00;99.90;;;;;;7321376;19;9059;-82
2023/07/24 06:02:42;;;;;;;;;;;18.00;99.90;;;;;;7320461;19;9256;-80
2023/07/24 06:05:11;;;;;;;;;;;18.10;99.90;;;;;;7320759;19;10161;-81
2023/07/24 06:07:40;;;;;;;;;;;18.20;99.90;;;;;;7321439;19;9248;-79
2023/07/24 06:10:12;;;;;;;;;;;18.30;99.90;;;;;;7319096;19;9510;-80
2023/07/24 06:12:42;;;;;;;;;;;18.30;99.90;;;;;;7319185;19;9469;-76
2023/07/24 06:15:11;;;;;;;;;;;18.50;99.90;;;;;;7321081;19;9483;-77
2023/07/24 06:17:40;;;;;;;;;;;18.50;99.90;;;;;;7316596;19;9834;-80
2023/07/24 06:20:10;;;;;;;;;;;18.50;99.90;;;;;;7320480;19;9242;-84
2023/07/24 06:22:39;;;;;;;;;;;18.80;99.90;;;;;;7318552;19;9177;-76
2023/07/24 06:25:09;;;;;;;;;;;19.10;99.90;;;;;;7318427;19;9508;-76
2023/07/24 06:27:40;;;;;;;;;;;19.00;99.90;;;;;;7319126;19;11435;-76
2023/07/24 06:30:10;;;;;;;;;;;19.10;99.90;;;;;;7319559;19;9242;-76
2023/07/24 06:32:39;;;;;;;;;;;19.30;99.90;;;;;;7319476;19;9597;-76
2023/07/24 06:35:09;;;;;;;;;;;19.40;99.90;;;;;;7317811;19;10308;-76
2023/07/24 06:37:38;;;;;;;;;;;19.60;99.90;;;;;;7318654;19;9505;-76
2023/07/24 06:40:09;;;;;;;;;;;19.80;99.90;;;;;;7318072;19;9459;-76
2023/07/24 06:42:40;;;;;;;;;;;19.60;99.90;;;;;;7317997;19;9338;-76
2023/07/24 06:45:10;;;;;;;;;;;19.80;99.90;;;;;;7315651;19;9379;-76
2023/07/24 06:47:39;;;;;;;;;;;19.90;99.90;;;;;;7319939;19;9177;-76
2023/07/24 06:50:10;;;;;;;;;;;20.00;99.90;;;;;;7314569;19;9329;-76
2023/07/24 06:52:39;;;;;;;;;;;19.90;99.90;;;;;;7317744;19;9239;-76
2023/07/24 06:55:09;;;;;;;;;;;20.10;99.90;;;;;;7316372;19;9311;-76
2023/07/24 06:57:40;;;;;;;;;;;20.20;99.90;;;;;;7317264;19;11157;-76
2023/07/24 07:00:11;;;;;;;;;;;20.30;99.90;;;;;;7318830;19;9268;-76
2023/07/24 07:02:40;;;;;;;;;;;20.40;99.90;;;;;;7318776;19;10425;-76
2023/07/24 07:05:10;;;;;;;;;;;20.40;99.90;;;;;;7320820;19;9580;-76
2023/07/24 07:07:39;;;;;;;;;;;20.40;99.90;;;;;;7316897;19;9578;-76
2023/07/24 07:10:09;;;;;;;;;;;20.30;99.90;;;;;;7316595;19;9594;-76
2023/07/24 07:12:41;;;;;;;;;;;20.30;99.90;;;;;;7316357;19;9305;-76
2023/07/24 07:15:11;;;;;;;;;;;20.30;99.90;;;;;;7313362;19;10384;-76
2023/07/24 07:17:40;;;;;;;;;;;20.30;99.90;;;;;;7317027;19;9376;-77
2023/07/24 07:20:10;;;;;;;;;;;20.20;99.90;;;;;;7318511;19;9508;-76
2023/07/24 07:22:39;;;;;;;;;;;20.10;99.90;;;;;;7317967;19;9600;-76
2023/07/24 07:25:08;;;;;;;;;;;20.20;99.90;;;;;;7319469;19;9379;-77
2023/07/24 07:27:37;;;;;;;;;;;20.40;99.90;;;;;;7317296;19;9257;-77
2023/07/24 07:30:10;;;;;;;;;;;20.50;99.90;;;;;;7317975;19;9523;-76
2023/07/24 07:32:40;;;;;;;;;;;20.70;99.90;;;;;;7319506;19;9186;-77
2023/07/24 07:35:10;;;;;;;;;;;20.70;99.90;;;;;;7315990;19;9352;-76
2023/07/24 07:37:39;;;;;;;;;;;20.70;99.90;;;;;;7318640;19;9503;-76
2023/07/24 07:40:09;;;;;;;;;;;20.80;99.90;;;;;;7319408;19;9254;-76
2023/07/24 07:42:38;;;;;;;;;;;20.60;99.90;;;;;;7319301;19;9261;-76
2023/07/24 07:45:11;;;;;;;;;;;20.50;99.90;;;;;;7317289;19;9457;-77
2023/07/24 07:47:40;;;;;;;;;;;20.50;99.90;;;;;;7323152;19;9217;-77
2023/07/24 07:50:09;;;;;;;;;;;20.50;99.90;;;;;;7325401;19;9185;-76
2023/07/24 07:52:38;;;;;;;;;;;20.40;99.90;;;;;;7327131;19;9268;-76
2023/07/24 07:55:08;;;;;;;;;;;20.60;99.90;;;;;;7325962;19;9152;-76
2023/07/24 07:57:38;;;;;;;;;;;20.80;99.90;;;;;;7324688;19;9293;-76
2023/07/24 08:00:11;;;;;;;;;;;20.80;99.90;;;;;;7323992;19;9268;-76
2023/07/24 08:02:40;;;;;;;;;;;20.70;99.90;;;;;;7323930;19;9345;-77
2023/07/24 08:05:10;;;;;;;;;;;20.90;99.90;;;;;;7325403;19;9189;-76
2023/07/24 08:07:40;;;;;;;;;;;20.80;99.90;;;;;;7326368;19;9627;-76
2023/07/24 08:10:10;;;;;;;;;;;20.60;99.90;;;;;;7321309;19;9145;-77
2023/07/24 08:12:39;;;;;;;;;;;20.90;99.90;;;;;;7326102;19;9103;-77
2023/07/24 08:15:12;;;;;;;;;;;20.90;99.90;;;;;;7324288;19;10157;-77
2023/07/24 08:17:41;;;;;;;;;;;21.00;99.90;;;;;;7325380;19;9555;-77
2023/07/24 08:20:10;;;;;;;;;;;21.00;99.90;;;;;;7323818;19;10329;-77
2023/07/24 08:22:39;;;;;;;;;;;21.10;99.90;;;;;;7325235;19;9467;-76
2023/07/24 08:25:09;;;;;;;;;;;21.20;99.90;;;;;;7324356;19;9237;-77
2023/07/24 08:27:38;;;;;;;;;;;21.20;99.90;;;;;;7325783;19;9284;-76
2023/07/24 08:30:11;;;;;;;;;;;21.10;99.90;;;;;;7321801;19;9121;-77
2023/07/24 08:32:42;;;;;;;;;;;21.20;99.90;;;;;;7323686;19;9548;-77
2023/07/24 08:35:16;;;;;;;;;;;21.00;99.90;;;;;;7322547;19;9380;-77
2023/07/24 08:37:45;;;;;;;;;;;21.10;99.90;;;;;;7325744;19;9313;-77
2023/07/24 08:40:15;;;;;;;;;;;21.40;99.90;;;;;;7322990;19;9213;-77
2023/07/24 08:42:46;;;;;;;;;;;21.50;99.90;;;;;;7324753;19;10479;-76
2023/07/24 08:45:18;;;;;;;;;;;21.60;99.90;;;;;;7322386;19;9621;-77
2023/07/24 08:47:48;;;;;;;;;;;21.70;99.90;;;;;;7324870;19;10905;-77
2023/07/24 08:50:17;;;;;;;;;;;21.70;99.90;;;;;;7321698;19;10680;-77
2023/07/24 08:52:46;;;;;;;;;;;21.70;99.90;;;;;;7323474;19;9257;-77
2023/07/24 08:55:16;;;;;;;;;;;21.70;99.90;;;;;;7322689;19;9086;-77
2023/07/24 08:57:45;;;;;;;;;;;21.80;99.90;;;;;;7324042;19;9219;-77
2023/07/24 09:00:17;;;;;;;;;;;21.80;99.90;;;;;;7323410;19;9260;-77
2023/07/24 09:02:46;;;;;;;;;;;21.70;99.90;;;;;;7324324;19;10691;-77
2023/07/24 09:05:35;;;;;;;;;;;21.80;99.90;;;;;;7321602;19;9612;-75
2023/07/24 09:08:04;;;;;;;;;;;21.70;99.90;;;;;;7323341;19;9458;-76
2023/07/24 09:10:33;;;;;;;;;;;21.70;99.90;;;;;;7318846;19;9276;-77
2023/07/24 09:13:03;;;;;;;;;;;21.60;99.90;;;;;;7323748;19;9264;-77
2023/07/24 09:15:42;;;;;;;;;;;21.70;99.90;;;;;;7321912;19;9340;-77
2023/07/24 09:18:11;;;;;;;;;;;21.70;99.90;;;;;;7324982;19;10268;-77
2023/07/24 09:20:43;;;;;;;;;;;21.70;99.90;;;;;;7321014;19;9235;-77
2023/07/24 09:23:13;;;;;;;;;;;21.60;99.90;;;;;;7322672;19;9209;-77
2023/07/24 09:25:44;;;;;;;;;;;21.60;99.90;;;;;;7323058;19;9422;-77
2023/07/24 09:28:14;;;;;;;;;;;21.60;99.90;;;;;;7323519;19;9127;-77
2023/07/24 09:30:55;;;;;;;;;;;21.70;99.90;;;;;;7320547;19;9177;-77
2023/07/24 09:33:26;;;;;;;;;;;21.70;99.90;;;;;;7323524;19;9113;-77
2023/07/24 09:36:01;;;;;;;;;;;21.70;99.90;;;;;;7321748;19;9196;-77
2023/07/24 09:38:30;;;;;;;;;;;21.90;99.90;;;;;;7322555;19;9304;-76
2023/07/24 09:41:00;;;;;;;;;;;22.10;99.90;;;;;;7321859;19;9196;-77
2023/07/24 09:43:31;;;;;;;;;;;22.20;99.90;;;;;;7321682;19;9256;-76
2023/07/24 09:46:02;;;;;;;;;;;22.30;99.90;;;;;;7322042;19;9257;-77
2023/07/24 09:48:31;;;;;;;;;;;22.30;99.90;;;;;;7321577;19;9123;-77
2023/07/24 09:51:03;;;;;;;;;;;22.20;99.90;;;;;;7319182;19;10415;-77
2023/07/24 09:53:36;;;;;;;;;;;22.20;99.90;;;;;;7320603;19;9305;-83
2023/07/24 09:56:08;;;;;;;;;;;22.20;99.90;;;;;;7324354;19;9288;-81
2023/07/24 09:58:39;;;;;;;;;;;22.30;99.90;;;;;;7319311;19;11023;-82
2023/07/24 10:01:12;;;;;;;;;;;22.40;99.90;;;;;;7316677;19;9468;-82
2023/07/24 10:03:43;;;;;;;;;;;22.40;99.90;;;;;;7227306;19;13882;-81
2023/07/24 10:06:14;;;;;;;;;;;22.40;99.90;;;;;;7311059;19;9430;-77
2023/07/24 10:08:44;;;;;;;;;;;22.40;99.90;;;;;;7318088;19;9488;-81
2023/07/24 10:11:15;;;;;;;;;;;21.90;99.90;;;;;;7318851;19;9452;-80
2023/07/24 10:13:45;;;;;;;;;;;21.20;99.90;;;;;;7319153;19;9281;-78
2023/07/24 10:16:17;;;;;;;;;;;20.70;99.90;;;;;;7322452;19;9525;-80
2023/07/24 10:18:48;;;;;;;;;;;20.60;99.90;;;;;;7323068;19;9354;-80
2023/07/24 10:21:17;;;;;;;;;;;20.80;99.90;;;;;;7319292;19;9405;-80
2023/07/24 10:23:48;;;;;;;;;;;20.90;99.90;;;;;;7322855;19;9206;-81
2023/07/24 10:26:20;;;;;;;;;;;21.00;99.90;;;;;;7320492;19;11243;-81
2023/07/24 10:28:50;;;;;;;;;;;21.10;99.90;;;;;;7321695;19;9556;-81
2023/07/24 10:31:28;;;;;;;;;;;21.20;99.90;;;;;;7320682;19;9269;-81
2023/07/24 10:34:07;;;;;;;;;;;21.30;99.90;;;;;;7322834;19;9168;-82
2023/07/24 10:36:39;;;;;;;;;;;21.30;99.90;;;;;;7319453;19;9366;-83
2023/07/24 10:39:18;;;;;;;;;;;21.50;99.90;;;;;;7322316;19;9248;-81
2023/07/24 10:41:47;;;;;;;;;;;21.60;99.90;;;;;;7323111;19;9481;-82
2023/07/24 10:44:16;;;;;;;;;;;21.60;99.90;;;;;;7321814;19;10469;-80
2023/07/24 10:46:48;;;;;;;;;;;21.70;99.90;;;;;;7321062;19;9309;-80
2023/07/24 10:49:16;;;;;;;;;;;21.80;99.90;;;;;;7322713;19;9595;-80
2023/07/24 10:51:45;;;;;;;;;;;22.00;99.90;;;;;;7319796;19;9278;-79
2023/07/24 10:54:14;;;;;;;;;;;22.00;99.90;;;;;;7322676;19;9634;-78
2023/07/24 10:56:43;;;;;;;;;;;22.20;99.90;;;;;;7320019;19;9510;-87
2023/07/24 10:59:14;;;;;;;;;;;22.20;99.90;;;;;;7319190;19;9272;-83
2023/07/24 11:01:44;;;;;;;;;;;22.30;99.90;;;;;;7321834;19;11175;-87
2023/07/24 11:04:16;;;;;;;;;;;22.20;99.90;;;;;;7321785;19;9253;-79
2023/07/24 11:06:45;;;;;;;;;;;22.40;99.90;;;;;;7318557;19;9241;-84
2023/07/24 11:09:14;;;;;;;;;;;22.50;99.90;;;;;;7321597;19;8992;-85
2023/07/24 11:11:43;;;;;;;;;;;22.70;99.90;;;;;;7318657;19;9257;-88
2023/07/24 11:14:17;;;;;;;;;;;22.80;99.90;;;;;;7322660;19;9249;-82
2023/07/24 11:16:51;;;;;;;;;;;22.70;99.90;;;;;;7320549;19;10975;-87
2023/07/24 11:19:28;;;;;;;;;;;22.90;99.90;;;;;;7322051;19;9134;-88
2023/07/24 11:21:58;;;;;;;;;;;23.10;99.90;;;;;;7316220;19;9275;-81
2023/07/24 11:24:27;;;;;;;;;;;23.30;99.90;;;;;;7328752;19;9100;-81
2023/07/24 11:26:55;;;;;;;;;;;23.30;99.90;;;;;;7326728;19;9251;-81
2023/07/24 11:29:25;;;;;;;;;;;23.40;99.90;;;;;;7328860;19;9280;-81
2023/07/24 11:31:56;;;;;;;;;;;23.40;99.90;;;;;;7327601;19;9594;-81
2023/07/24 11:34:29;;;;;;;;;;;23.30;99.80;;;;;;7325887;19;9190;-81
2023/07/24 11:36:58;;;;;;;;;;;23.30;99.70;;;;;;7325425;19;9585;-81
2023/07/24 11:39:27;;;;;;;;;;;23.30;99.20;;;;;;7325019;19;9624;-81
2023/07/24 11:41:56;;;;;;;;;;;23.20;99.40;;;;;;7326122;19;9479;-81
2023/07/24 11:44:29;;;;;;;;;;;23.10;99.90;;;;;;7328937;19;9300;-81
2023/07/24 11:47:08;;;;;;;;;;;23.10;99.90;;;;;;7325474;19;9261;-81
2023/07/24 11:49:47;;;;;;;;;;;23.00;99.90;;;;;;7325725;19;9590;-81
2023/07/24 11:52:16;;;;;;;;;;;23.00;99.90;;;;;;7326451;19;11736;-81
2023/07/24 11:54:45;;;;;;;;;;;23.00;99.90;;;;;;7328225;19;9640;-81
2023/07/24 11:57:18;;;;;;;;;;;22.90;99.90;;;;;;7325487;19;9610;-81
2023/07/24 11:59:47;;;;;;;;;;;22.80;99.90;;;;;;7326412;19;9372;-81
2023/07/24 12:02:16;;;;;;;;;;;22.70;99.90;;;;;;7328598;19;9241;-81
2023/07/24 12:04:48;;;;;;;;;;;22.50;99.90;;;;;;7327254;19;9397;-81
2023/07/24 12:07:17;;;;;;;;;;;22.40;99.90;;;;;;7321469;19;10860;-82
2023/07/24 12:09:53;;;;;;;;;;;22.30;99.90;;;;;;7322179;19;9524;-81
2023/07/24 12:12:22;;;;;;;;;;;22.20;99.90;;;;;;7326811;19;9109;-81
2023/07/24 12:14:51;;;;;;;;;;;22.10;99.90;;;;;;7324869;19;8952;-81
2023/07/24 12:17:21;;;;;;;;;;;21.90;99.90;;;;;;7326581;19;9478;-82
2023/07/24 12:19:55;;;;;;;;;;;21.80;99.90;;;;;;7326358;19;9518;-81
2023/07/24 12:22:24;;;;;;;;;;;21.70;99.90;;;;;;7326735;19;9268;-81
2023/07/24 12:24:53;;;;;;;;;;;21.50;99.90;;;;;;7326610;19;9418;-81
2023/07/24 12:27:22;;;;;;;;;;;21.20;99.90;;;;;;7326201;19;9276;-81
2023/07/24 12:29:51;;;;;;;;;;;21.00;99.90;;;;;;7326748;19;9241;-81
2023/07/24 12:32:22;;;;;;;;;;;21.00;99.90;;;;;;7324192;19;10424;-81
2023/07/24 12:34:56;;;;;;;;;;;21.30;99.90;;;;;;7326403;19;9221;-81
2023/07/24 12:37:25;;;;;;;;;;;21.30;99.90;;;;;;7325761;19;9133;-81
2023/07/24 12:39:54;;;;;;;;;;;21.50;99.90;;;;;;7326783;19;9475;-81
2023/07/24 12:42:23;;;;;;;;;;;21.90;99.90;;;;;;7323424;19;10988;-81
2023/07/24 12:44:52;;;;;;;;;;;22.20;99.90;;;;;;7326866;19;9641;-81
2023/07/24 12:47:21;;;;;;;;;;;22.50;99.90;;;;;;7325328;19;9170;-80
2023/07/24 12:49:52;;;;;;;;;;;22.90;99.90;;;;;;7326653;19;9257;-81
2023/07/24 12:52:24;;;;;;;;;;;23.20;99.90;;;;;;7326161;19;9321;-81
2023/07/24 12:54:53;;;;;;;;;;;23.30;99.90;;;;;;7327280;19;9606;-81
2023/07/24 12:57:22;;;;;;;;;;;23.50;99.90;;;;;;7325508;19;10877;-80
2023/07/24 12:59:51;;;;;;;;;;;23.60;99.70;;;;;;7325539;19;9699;-81
2023/07/24 13:02:19;;;;;;;;;;;23.60;99.20;;;;;;7325049;19;9258;-80
2023/07/24 13:04:48;;;;;;;;;;;23.50;99.00;;;;;;7324879;19;9221;-81
2023/07/24 13:07:17;;;;;;;;;;;23.50;99.90;;;;;;7325640;19;9460;-81
2023/07/24 13:09:49;;;;;;;;;;;23.20;99.90;;;;;;7324647;19;9250;-81
2023/07/24 13:12:18;;;;;;;;;;;22.70;99.90;;;;;;7325480;19;9131;-81
2023/07/24 13:14:47;;;;;;;;;;;22.40;99.90;;;;;;7322122;19;9537;-80
2023/07/24 13:17:16;;;;;;;;;;;22.40;99.90;;;;;;7324235;19;9214;-80
2023/07/24 13:19:45;;;;;;;;;;;22.40;99.90;;;;;;7323720;19;11305;-81
2023/07/24 13:22:14;;;;;;;;;;;22.40;99.90;;;;;;7325794;19;9270;-80
2023/07/24 13:24:43;;;;;;;;;;;22.20;99.90;;;;;;7325051;19;9499;-80
2023/07/24 13:27:14;;;;;;;;;;;22.10;99.90;;;;;;7325623;19;9300;-80
2023/07/24 13:29:43;;;;;;;;;;;22.00;99.90;;;;;;7325621;19;8945;-80
2023/07/24 13:32:12;;;;;;;;;;;21.10;99.90;;;;;;7321862;19;9255;-80
2023/07/24 13:34:41;;;;;;;;;;;20.90;99.90;;;;;;7324763;19;9454;-81
2023/07/24 13:37:10;;;;;;;;;;;20.40;99.90;;;;;;7324073;19;9532;-82
2023/07/24 13:39:39;;;;;;;;;;;20.10;99.90;;;;;;7323032;19;9432;-83
2023/07/24 13:42:09;;;;;;;;;;;19.90;99.90;;;;;;7314436;19;8944;-83
2023/07/24 13:44:41;;;;;;;;;;;19.80;99.90;;;;;;7318043;19;9484;-79
2023/07/24 13:47:10;;;;;;;;;;;19.80;99.90;;;;;;7322829;19;9376;-77
2023/07/24 13:49:38;;;;;;;;;;;19.90;99.90;;;;;;7323958;19;9264;-77
2023/07/24 13:52:08;;;;;;;;;;;19.80;99.90;;;;;;7320338;19;8944;-78
2023/07/24 13:54:37;;;;;;;;;;;19.90;99.90;;;;;;7323091;19;9264;-77
2023/07/24 13:57:07;;;;;;;;;;;19.80;99.90;;;;;;7320434;19;10328;-77
2023/07/24 13:59:37;;;;;;;;;;;19.80;99.90;;;;;;7322262;19;9446;-78
2023/07/24 14:02:10;;;;;;;;;;;19.80;99.90;;;;;;7322511;19;9004;-78
2023/07/24 14:04:39;;;;;;;;;;;19.70;99.90;;;;;;7322732;19;9513;-81
2023/07/24 14:07:09;;;;;;;;;;;19.70;99.90;;;;;;7326489;19;9244;-79
2023/07/24 14:09:38;;;;;;;;;;;19.70;99.90;;;;;;7325052;19;9112;-79
2023/07/24 14:12:09;;;;;;;;;;;19.60;99.90;;;;;;7318643;19;9126;-79
2023/07/24 14:14:39;;;;;;;;;;;19.60;99.90;;;;;;7322419;19;9437;-81
2023/07/24 14:17:11;;;;;;;;;;;19.60;99.90;;;;;;7324119;19;9214;-80
2023/07/24 14:19:42;;;;;;;;;;;19.60;99.90;;;;;;7322105;19;9279;-80
2023/07/24 14:22:11;;;;;;;;;;;19.80;99.90;;;;;;7322626;19;9272;-79
2023/07/24 14:24:40;;;;;;;;;;;19.90;99.90;;;;;;7322456;19;9205;-79
2023/07/24 14:27:09;;;;;;;;;;;20.00;99.90;;;;;;7322388;19;9338;-79
2023/07/24 14:29:38;;;;;;;;;;;20.00;99.90;;;;;;7322166;19;11237;-79
2023/07/24 14:32:11;;;;;;;;;;;20.00;99.90;;;;;;7315119;19;10433;-80
2023/07/24 14:34:40;;;;;;;;;;;20.10;99.90;;;;;;7320352;19;9001;-79
2023/07/24 14:37:09;;;;;;;;;;;20.10;99.90;;;;;;7322567;19;9490;-79
2023/07/24 14:39:41;;;;;;;;;;;19.90;99.90;;;;;;7321800;19;9499;-80
2023/07/24 14:42:10;;;;;;;;;;;20.00;99.90;;;;;;7319671;19;9173;-80
2023/07/24 14:44:39;;;;;;;;;;;19.90;99.90;;;;;;7321829;19;9270;-81
2023/07/24 14:47:11;;;;;;;;;;;19.90;99.90;;;;;;7321751;19;9217;-81